createdAt,value
2019-05-13T00:00:35.760Z,97216.00
2019-05-13T00:03:08.028Z,97201.00
2019-05-13T00:05:40.705Z,97206.00
2019-05-13T00:08:13.923Z,97203.00
2019-05-13T00:10:46.760Z,97194.00
2019-05-13T00:13:18.945Z,97198.00
2019-05-13T00:15:50.868Z,97200.00
2019-05-13T00:18:23.555Z,97201.00
2019-05-13T00:20:56.984Z,97200.00
2019-05-13T00:23:29.158Z,97208.00
2019-05-13T00:26:03.564Z,97206.00
2019-05-13T00:28:35.280Z,97201.00
2019-05-13T00:31:08.183Z,97201.00
2019-05-13T00:33:40.711Z,97194.00
2019-05-13T00:36:14.251Z,97200.00
2019-05-13T00:38:46.859Z,97189.00
2019-05-13T00:41:19.039Z,97191.00
2019-05-13T00:43:53.144Z,97201.00
2019-05-13T00:46:24.808Z,97195.00
2019-05-13T00:48:56.675Z,97203.00
2019-05-13T00:51:28.925Z,97213.00
2019-05-13T00:54:00.841Z,97212.00
2019-05-13T00:56:34.539Z,97217.00
2019-05-13T00:59:06.944Z,97202.00
2019-05-13T01:01:38.868Z,97210.00
2019-05-13T01:04:11.090Z,97202.00
2019-05-13T01:06:43.688Z,97204.00
2019-05-13T01:09:15.838Z,97207.00
2019-05-13T01:11:48.318Z,97206.00
2019-05-13T01:14:20.849Z,97209.00
2019-05-13T01:16:54.349Z,97203.00
2019-05-13T01:19:26.614Z,97207.00
2019-05-13T01:21:59.577Z,97207.00
2019-05-13T01:24:33.659Z,97202.00
2019-05-13T01:27:05.881Z,97207.00
2019-05-13T01:29:37.760Z,97207.00
2019-05-13T01:32:10.247Z,97205.00
2019-05-13T01:34:44.347Z,97199.00
2019-05-13T01:37:17.064Z,97198.00
2019-05-13T01:39:50.039Z,97203.00
2019-05-13T01:42:24.143Z,97201.00
2019-05-13T01:44:56.733Z,97201.00
2019-05-13T01:47:28.995Z,97199.00
2019-05-13T01:50:03.798Z,97199.00
2019-05-13T01:52:34.976Z,97207.00
2019-05-13T01:55:07.005Z,97202.00
2019-05-13T01:57:38.935Z,97207.00
2019-05-13T02:00:13.767Z,97215.00
2019-05-13T02:02:45.007Z,97215.00
2019-05-13T02:05:16.863Z,97214.00
2019-05-13T02:07:57.681Z,97211.00
2019-05-13T02:10:44.330Z,97212.00
2019-05-13T02:13:16.243Z,97214.00
2019-05-13T02:15:48.093Z,97213.00
2019-05-13T02:18:20.350Z,97212.00
2019-05-13T02:20:54.896Z,97205.00
2019-05-13T02:23:26.010Z,97211.00
2019-05-13T02:25:58.242Z,97216.00
2019-05-13T02:28:33.231Z,97224.00
2019-05-13T02:31:04.686Z,97216.00
2019-05-13T02:33:36.862Z,97217.00
2019-05-13T02:36:08.710Z,97212.00
2019-05-13T02:38:42.723Z,97221.00
2019-05-13T02:41:14.822Z,97218.00
2019-05-13T02:43:47.142Z,97216.00
2019-05-13T02:46:22.410Z,97217.00
2019-05-13T02:48:53.007Z,97219.00
2019-05-13T02:51:25.421Z,97214.00
2019-05-13T02:53:57.297Z,97216.00
2019-05-13T02:56:29.143Z,97218.00
2019-05-13T02:59:03.792Z,97219.00
2019-05-13T03:01:35.510Z,97214.00
2019-05-13T03:04:07.757Z,97213.00
2019-05-13T03:06:43.250Z,97217.00
2019-05-13T03:09:13.777Z,97225.00
2019-05-13T03:11:45.953Z,97216.00
2019-05-13T03:14:18.153Z,97220.00
2019-05-13T03:17:02.783Z,97218.00
2019-05-13T03:19:33.366Z,97224.00
2019-05-13T03:22:05.423Z,97221.00
2019-05-13T03:24:37.320Z,97222.00
2019-05-13T03:27:12.787Z,97220.00
2019-05-13T03:29:44.460Z,97233.00
2019-05-13T03:32:17.427Z,97228.00
2019-05-13T03:34:55.091Z,97228.00
2019-05-13T03:37:26.491Z,97227.00
2019-05-13T03:39:58.145Z,97239.00
2019-05-13T03:42:33.476Z,97237.00
2019-05-13T03:45:06.442Z,97232.00
2019-05-13T03:47:42.022Z,97232.00
2019-05-13T03:50:13.092Z,97270.00
2019-05-13T03:52:45.562Z,97235.00
2019-05-13T03:55:18.059Z,97231.00
2019-05-13T03:57:53.191Z,97241.00
2019-05-13T04:00:24.767Z,97243.00
2019-05-13T04:02:57.351Z,97244.00
2019-05-13T04:05:33.140Z,97244.00
2019-05-13T04:08:03.849Z,97241.00
2019-05-13T04:10:36.128Z,97242.00
2019-05-13T04:13:12.198Z,97245.00
2019-05-13T04:15:42.971Z,97242.00
2019-05-13T04:18:14.897Z,97247.00
2019-05-13T04:20:47.467Z,97248.00
2019-05-13T04:23:22.864Z,97235.00
2019-05-13T04:25:53.990Z,97236.00
2019-05-13T04:28:25.920Z,97246.00
2019-05-13T04:30:58.446Z,97243.00
2019-05-13T04:33:33.089Z,97242.00
2019-05-13T04:36:04.534Z,97254.00
2019-05-13T04:38:37.066Z,97245.00
2019-05-13T04:41:11.994Z,97248.00
2019-05-13T04:43:44.314Z,97254.00
2019-05-13T04:46:17.274Z,97255.00
2019-05-13T04:48:49.168Z,97242.00
2019-05-13T04:51:22.657Z,97253.00
2019-05-13T04:53:57.292Z,97256.00
2019-05-13T04:56:28.890Z,97249.00
2019-05-13T04:59:03.151Z,97263.00
2019-05-13T05:03:03.118Z,97247.00
2019-05-13T05:06:15.781Z,97264.00
2019-05-13T05:10:17.335Z,97261.00
2019-05-13T05:13:23.451Z,97259.00
2019-05-13T05:16:41.070Z,97254.00
2019-05-13T05:20:13.427Z,97258.00
2019-05-13T05:23:37.569Z,97265.00
2019-05-13T05:26:56.490Z,97257.00
2019-05-13T05:29:52.641Z,97266.00
2019-05-13T05:33:24.925Z,97261.00
2019-05-13T05:37:01.363Z,97264.00
2019-05-13T05:39:33.731Z,97264.00
2019-05-13T05:42:06.350Z,97264.00
2019-05-13T05:44:38.970Z,97278.00
2019-05-13T05:47:12.499Z,97270.00
2019-05-13T05:49:46.267Z,97273.00
2019-05-13T05:52:21.287Z,97269.00
2019-05-13T05:54:54.738Z,97267.00
2019-05-13T05:57:28.106Z,97273.00
2019-05-13T06:00:02.519Z,97274.00
2019-05-13T06:02:35.299Z,97281.00
2019-05-13T06:05:08.583Z,97279.00
2019-05-13T06:07:42.161Z,97282.00
2019-05-13T06:10:14.694Z,97283.00
2019-05-13T06:12:47.358Z,97285.00
2019-05-13T06:15:20.325Z,97287.00
2019-05-13T06:17:53.782Z,97286.00
2019-05-13T06:20:25.916Z,97286.00
2019-05-13T06:22:57.864Z,97289.00
2019-05-13T06:25:33.757Z,97283.00
2019-05-13T06:28:04.729Z,97277.00
2019-05-13T06:30:36.710Z,97279.00
2019-05-13T06:33:11.860Z,97274.00
2019-05-13T06:35:44.923Z,97271.00
2019-05-13T06:38:16.907Z,97271.00
2019-05-13T06:41:02.426Z,97283.00
2019-05-13T06:43:23.455Z,97278.00
2019-05-13T06:45:55.373Z,97284.00
2019-05-13T06:48:27.290Z,97273.00
2019-05-13T06:50:59.489Z,97274.00
2019-05-13T06:53:32.195Z,97272.00
2019-05-13T06:56:04.733Z,97269.00
2019-05-13T06:58:36.623Z,97274.00
2019-05-13T07:01:11.417Z,97271.00
2019-05-13T07:03:42.465Z,97267.00
2019-05-13T07:06:14.682Z,97267.00
2019-05-13T07:08:47.015Z,97271.00
2019-05-13T07:11:22.331Z,97261.00
2019-05-13T07:13:52.889Z,97267.00
2019-05-13T07:16:24.817Z,97269.00
2019-05-13T07:18:57.342Z,97263.00
2019-05-13T07:21:32.319Z,97259.00
2019-05-13T07:24:03.957Z,97263.00
2019-05-13T07:26:36.452Z,97264.00
2019-05-13T07:29:08.953Z,97263.00
2019-05-13T07:31:42.625Z,97276.00
2019-05-13T07:34:14.850Z,97280.00
2019-05-13T07:36:47.243Z,97272.00
2019-05-13T07:39:22.200Z,97277.00
2019-05-13T07:41:53.385Z,97274.00
2019-05-13T07:44:25.896Z,97277.00
2019-05-13T07:46:58.414Z,97282.00
2019-05-13T07:49:31.543Z,97279.00
2019-05-13T07:52:04.458Z,97289.00
2019-05-13T07:54:36.344Z,97288.00
2019-05-13T07:57:08.553Z,97278.00
2019-05-13T07:59:41.900Z,97295.00
2019-05-13T08:02:14.476Z,97297.00
2019-05-13T08:04:49.399Z,97297.00
2019-05-13T08:07:22.654Z,97285.00
2019-05-13T08:09:58.066Z,97287.00
2019-05-13T08:12:28.267Z,97309.00
2019-05-13T08:15:03.149Z,97271.00
2019-05-13T08:17:35.049Z,97272.00
2019-05-13T08:20:07.277Z,97274.00
2019-05-13T08:22:39.437Z,97286.00
2019-05-13T08:25:12.675Z,97273.00
2019-05-13T08:27:44.726Z,97270.00
2019-05-13T08:30:18.199Z,97264.00
2019-05-13T08:32:52.362Z,97270.00
2019-05-13T08:35:24.749Z,97264.00
2019-05-13T08:37:57.055Z,97268.00
2019-05-13T08:40:31.529Z,97257.00
2019-05-13T08:43:02.691Z,97272.00
2019-05-13T08:45:35.488Z,97293.00
2019-05-13T08:48:07.439Z,97269.00
2019-05-13T08:50:41.870Z,97270.00
2019-05-13T08:53:13.773Z,97269.00
2019-05-13T08:55:45.992Z,97268.00
2019-05-13T08:58:18.619Z,97271.00
2019-05-13T09:00:53.683Z,97253.00
2019-05-13T09:03:26.712Z,97257.00
2019-05-13T09:05:59.688Z,97271.00
2019-05-13T09:08:32.456Z,97276.00
2019-05-13T09:11:04.381Z,97267.00
2019-05-13T09:13:36.273Z,97268.00
2019-05-13T09:16:08.441Z,97260.00
2019-05-13T09:18:42.646Z,97242.00
2019-05-13T09:21:14.609Z,97260.00
2019-05-13T09:23:47.263Z,97256.00
2019-05-13T09:26:19.458Z,97275.00
2019-05-13T09:28:52.169Z,97276.00
2019-05-13T09:31:24.238Z,97268.00
2019-05-13T09:33:56.473Z,97268.00
2019-05-13T09:36:28.546Z,97263.00
2019-05-13T09:39:02.107Z,97270.00
2019-05-13T09:41:40.724Z,97273.00
2019-05-13T09:44:09.294Z,97277.00
2019-05-13T09:46:42.495Z,97281.00
2019-05-13T09:49:19.911Z,97277.00
2019-05-13T09:51:48.807Z,97267.00
2019-05-13T09:54:22.341Z,97258.00
2019-05-13T09:56:54.558Z,97237.00
2019-05-13T09:59:26.771Z,97270.00
2019-05-13T10:01:58.971Z,97266.00
2019-05-13T10:04:32.095Z,97263.00
2019-05-13T10:07:04.611Z,97259.00
2019-05-13T10:09:36.511Z,97254.00
2019-05-13T10:12:12.106Z,97260.00
2019-05-13T10:14:44.052Z,97242.00
2019-05-13T10:17:16.012Z,97241.00
2019-05-13T10:19:47.872Z,97244.00
2019-05-13T10:22:21.871Z,97260.00
2019-05-13T10:24:54.212Z,97269.00
2019-05-13T10:27:26.551Z,97273.00
2019-05-13T10:29:59.142Z,97269.00
2019-05-13T10:32:32.809Z,97248.00
2019-05-13T10:35:04.842Z,97252.00
2019-05-13T10:37:37.735Z,97255.00
2019-05-13T10:40:11.618Z,97248.00
2019-05-13T10:42:43.779Z,97243.00
2019-05-13T10:45:15.645Z,97244.00
2019-05-13T10:47:48.290Z,97255.00
2019-05-13T10:50:21.630Z,97248.00
2019-05-13T10:52:54.018Z,97238.00
2019-05-13T10:55:25.898Z,97246.00
2019-05-13T10:57:58.357Z,97244.00
2019-05-13T11:00:51.741Z,97238.00
2019-05-13T11:03:24.943Z,97243.00
2019-05-13T11:05:57.508Z,97246.00
2019-05-13T11:08:32.478Z,97241.00
2019-05-13T11:11:04.056Z,97225.00
2019-05-13T11:13:52.175Z,97236.00
2019-05-13T11:16:12.123Z,97225.00
2019-05-13T11:18:43.441Z,97220.00
2019-05-13T11:21:15.993Z,97228.00
2019-05-13T11:23:52.351Z,97221.00
2019-05-13T11:26:25.163Z,97225.00
2019-05-13T11:28:57.367Z,97229.00
2019-05-13T11:31:32.567Z,97221.00
2019-05-13T11:34:03.298Z,97229.00
2019-05-13T11:36:35.490Z,97229.00
2019-05-13T11:39:12.685Z,97222.00
2019-05-13T11:41:43.112Z,97214.00
2019-05-13T11:46:48.565Z,97225.00
2019-05-13T11:49:20.747Z,97221.00
2019-05-13T11:51:52.798Z,97206.00
2019-05-13T11:54:25.622Z,97204.00
2019-05-13T11:57:05.547Z,97206.00
2019-05-13T11:59:32.914Z,97209.00
2019-05-13T12:02:05.239Z,97214.00
2019-05-13T12:04:37.504Z,97214.00
2019-05-13T12:07:12.987Z,97223.00
2019-05-13T12:09:44.438Z,97220.00
2019-05-13T12:12:16.352Z,97204.00
2019-05-13T12:15:20.304Z,97206.00
2019-05-13T12:17:22.674Z,97216.00
2019-05-13T12:20:17.200Z,97214.00
2019-05-13T12:22:51.492Z,97228.00
2019-05-13T12:25:23.184Z,97214.00
2019-05-13T12:27:55.340Z,97212.00
2019-05-13T12:30:27.234Z,97218.00
2019-05-13T12:32:59.238Z,97209.00
2019-05-13T12:35:32.800Z,97215.00
2019-05-13T12:38:04.856Z,97206.00
2019-05-13T12:40:36.822Z,97200.00
2019-05-13T12:43:12.638Z,97205.00
2019-05-13T12:45:43.656Z,97220.00
2019-05-13T12:48:16.211Z,97210.00
2019-05-13T12:50:48.693Z,97213.00
2019-05-13T12:53:22.173Z,97219.00
2019-05-13T12:55:56.969Z,97211.00
2019-05-13T12:58:29.009Z,97213.00
2019-05-13T13:01:02.196Z,97195.00
2019-05-13T13:03:34.562Z,97202.00
2019-05-13T13:08:48.347Z,97212.00
2019-05-13T13:11:15.108Z,97196.00
2019-05-13T13:13:59.478Z,97185.00
2019-05-13T13:16:21.775Z,97183.00
2019-05-13T13:18:54.471Z,97187.00
2019-05-13T13:21:33.601Z,97195.00
2019-05-13T13:24:04.445Z,97204.00
2019-05-13T13:26:35.652Z,97194.00
2019-05-13T13:29:08.395Z,97194.00
2019-05-13T13:31:43.258Z,97186.00
2019-05-13T13:34:18.545Z,97199.00
2019-05-13T13:36:48.807Z,97202.00
2019-05-13T13:39:25.798Z,97201.00
2019-05-13T13:42:12.885Z,97178.00
2019-05-13T13:44:58.325Z,97176.00
2019-05-13T13:47:37.434Z,97194.00
2019-05-13T13:50:27.483Z,97173.00
2019-05-13T13:53:25.200Z,97317.00
2019-05-13T13:56:04.925Z,97178.00
2019-05-13T13:58:38.517Z,97177.00
2019-05-13T14:01:17.498Z,97197.00
2019-05-13T14:03:46.089Z,97180.00
2019-05-13T14:07:03.152Z,97211.00
2019-05-13T14:07:20.552Z,97173.00
2019-05-13T14:08:55.055Z,97183.00
2019-05-13T14:11:27.645Z,97189.00
2019-05-13T14:14:02.202Z,97178.00
2019-05-13T14:16:35.256Z,97166.00
2019-05-13T14:19:08.166Z,97173.00
2019-05-13T14:21:41.673Z,97166.00
2019-05-13T14:24:14.208Z,97168.00
2019-05-13T14:26:46.355Z,97174.00
2019-05-13T14:29:18.551Z,97168.00
2019-05-13T14:31:52.400Z,97162.00
2019-05-13T14:34:25.579Z,97151.00
2019-05-13T14:36:57.729Z,97143.00
2019-05-13T14:39:31.827Z,97155.00
2019-05-13T14:42:03.527Z,97159.00
2019-05-13T14:44:35.756Z,97159.00
2019-05-13T14:47:07.682Z,97151.00
2019-05-13T14:49:42.369Z,97152.00
2019-05-13T14:52:14.806Z,97137.00
2019-05-13T14:54:47.322Z,97143.00
2019-05-13T14:57:21.793Z,97134.00
2019-05-13T14:59:54.924Z,97144.00
2019-05-13T15:02:28.066Z,97138.00
2019-05-13T15:05:02.629Z,97139.00
2019-05-13T15:07:33.790Z,97138.00
2019-05-13T15:10:07.774Z,97140.00
2019-05-13T15:12:41.564Z,97128.00
2019-05-13T15:15:13.347Z,97134.00
2019-05-13T15:17:45.232Z,97148.00
2019-05-13T15:20:17.874Z,97147.00
2019-05-13T15:22:51.864Z,97149.00
2019-05-13T15:25:24.040Z,97144.00
2019-05-13T15:27:56.275Z,97146.00
2019-05-13T15:30:28.500Z,97148.00
2019-05-13T15:33:01.797Z,97142.00
2019-05-13T15:35:34.757Z,97129.00
2019-05-13T15:38:06.620Z,97144.00
2019-05-13T15:40:38.607Z,97147.00
2019-05-13T15:43:11.619Z,97138.00
2019-05-13T15:45:43.977Z,97131.00
2019-05-13T15:48:16.226Z,97130.00
2019-05-13T15:50:51.160Z,97121.00
2019-05-13T15:53:22.997Z,97120.00
2019-05-13T15:55:55.815Z,97116.00
2019-05-13T15:58:39.059Z,97110.00
2019-05-13T16:01:03.038Z,97114.00
2019-05-13T16:03:35.431Z,97116.00
2019-05-13T16:06:08.482Z,97115.00
2019-05-13T16:08:43.327Z,97125.00
2019-05-13T16:11:14.929Z,97136.00
2019-05-13T16:13:46.924Z,97122.00
2019-05-13T16:16:21.515Z,97130.00
2019-05-13T16:18:52.804Z,97125.00
2019-05-13T16:21:25.668Z,97128.00
2019-05-13T16:23:58.473Z,97113.00
2019-05-13T16:26:31.833Z,97109.00
2019-05-13T16:29:03.975Z,97116.00
2019-05-13T16:31:35.989Z,97105.00
2019-05-13T16:34:08.207Z,97109.00
2019-05-13T16:36:43.011Z,97110.00
2019-05-13T16:39:15.749Z,97108.00
2019-05-13T16:41:47.770Z,97114.00
2019-05-13T16:44:22.238Z,97076.00
2019-05-13T16:46:53.615Z,97100.00
2019-05-13T16:49:25.707Z,97107.00
2019-05-13T16:51:57.695Z,97117.00
2019-05-13T16:54:32.581Z,97109.00
2019-05-13T16:57:03.266Z,97113.00
2019-05-13T16:59:35.219Z,97112.00
2019-05-13T17:02:07.484Z,97113.00
2019-05-13T17:04:41.337Z,97120.00
2019-05-13T17:07:13.634Z,97127.00
2019-05-13T17:09:45.744Z,97132.00
2019-05-13T17:12:18.231Z,97137.00
2019-05-13T17:14:52.250Z,97133.00
2019-05-13T17:17:25.410Z,97139.00
2019-05-13T17:19:57.775Z,97142.00
2019-05-13T17:22:31.614Z,97149.00
2019-05-13T17:25:04.569Z,97149.00
2019-05-13T17:27:36.845Z,97154.00
2019-05-13T17:30:11.249Z,97154.00
2019-05-13T17:32:43.526Z,97157.00
2019-05-13T17:35:15.804Z,97149.00
2019-05-13T17:37:51.099Z,97150.00
2019-05-13T17:40:23.029Z,97152.00
2019-05-13T17:42:54.947Z,97155.00
2019-05-13T17:45:27.179Z,97145.00
2019-05-13T17:48:01.064Z,97152.00
2019-05-13T17:50:33.744Z,97148.00
2019-05-13T17:53:06.585Z,97148.00
2019-05-13T17:55:39.088Z,97147.00
2019-05-13T17:58:11.801Z,97142.00
2019-05-13T18:00:43.868Z,97144.00
2019-05-13T18:03:16.028Z,97152.00
2019-05-13T18:05:48.645Z,97136.00
2019-05-13T18:08:21.357Z,97144.00
2019-05-13T18:10:53.508Z,97141.00
2019-05-13T18:13:25.454Z,97147.00
2019-05-13T18:15:58.043Z,97151.00
2019-05-13T18:18:40.226Z,97145.00
2019-05-13T18:21:03.826Z,97144.00
2019-05-13T18:23:36.381Z,97154.00
2019-05-13T18:26:08.581Z,97154.00
2019-05-13T18:28:42.116Z,97145.00
2019-05-13T18:31:14.844Z,97150.00
2019-05-13T18:33:47.136Z,97143.00
2019-05-13T18:36:19.399Z,97143.00
2019-05-13T18:38:51.955Z,97153.00
2019-05-13T18:41:24.478Z,97145.00
2019-05-13T18:43:56.705Z,97149.00
2019-05-13T18:46:28.883Z,97153.00
2019-05-13T18:49:02.206Z,97156.00
2019-05-13T18:51:34.425Z,97147.00
2019-05-13T18:54:06.392Z,97158.00
2019-05-13T18:56:41.396Z,97156.00
2019-05-13T18:59:13.189Z,97153.00
2019-05-13T19:01:45.408Z,97155.00
2019-05-13T19:04:17.280Z,97153.00
2019-05-13T19:06:51.695Z,97158.00
2019-05-13T19:09:24.473Z,97158.00
2019-05-13T19:11:56.665Z,97163.00
2019-05-13T19:14:31.610Z,97161.00
2019-05-13T19:17:04.244Z,97167.00
2019-05-13T19:19:36.392Z,97173.00
2019-05-13T19:22:08.273Z,97176.00
2019-05-13T19:24:41.692Z,97183.00
2019-05-13T19:27:13.591Z,97188.00
2019-05-13T19:29:45.913Z,97188.00
2019-05-13T19:32:17.844Z,97192.00
2019-05-13T19:34:51.683Z,97182.00
2019-05-13T19:37:24.592Z,97184.00
2019-05-13T19:39:58.120Z,97183.00
2019-05-13T19:42:31.371Z,97180.00
2019-05-13T19:45:03.986Z,97193.00
2019-05-13T19:47:36.499Z,97194.00
2019-05-13T19:50:09.145Z,97194.00
2019-05-13T19:55:25.536Z,97187.00
2019-05-13T19:57:57.978Z,97183.00
2019-05-13T20:00:31.566Z,97190.00
2019-05-13T20:03:04.412Z,97191.00
2019-05-13T20:05:37.769Z,97186.00
2019-05-13T20:08:13.260Z,97185.00
2019-05-13T20:10:48.789Z,97187.00
2019-05-13T20:13:21.812Z,97183.00
2019-05-13T20:15:54.553Z,97185.00
2019-05-13T20:18:26.652Z,97180.00
2019-05-13T20:21:01.079Z,97187.00
2019-05-13T20:23:33.442Z,97183.00
2019-05-13T20:26:05.747Z,97183.00
2019-05-13T20:28:37.984Z,97190.00
2019-05-13T20:31:11.128Z,97188.00
2019-05-13T20:33:43.200Z,97185.00
2019-05-13T20:36:15.510Z,97190.00
2019-05-13T20:38:47.682Z,97192.00
2019-05-13T20:41:22.286Z,97195.00
2019-05-13T20:43:54.061Z,97194.00
2019-05-13T20:46:26.019Z,97193.00
2019-05-13T20:48:58.309Z,97197.00
2019-05-13T20:51:31.337Z,97196.00
2019-05-13T20:54:04.480Z,97193.00
2019-05-13T20:56:36.991Z,97190.00
2019-05-13T20:59:08.857Z,97189.00
2019-05-13T21:01:41.887Z,97200.00
2019-05-13T21:04:14.158Z,97187.00
2019-05-13T21:06:46.689Z,97187.00
2019-05-13T21:09:18.652Z,97197.00
2019-05-13T21:11:51.582Z,97195.00
2019-05-13T21:14:25.777Z,97190.00
2019-05-13T21:17:01.225Z,97190.00
2019-05-13T21:19:39.113Z,97179.00
2019-05-13T21:22:07.575Z,97178.00
2019-05-13T21:24:43.087Z,97177.00
2019-05-13T21:27:19.622Z,97167.00
2019-05-13T21:29:52.056Z,97167.00
2019-05-13T21:32:24.067Z,97176.00
2019-05-13T21:34:56.028Z,97170.00
2019-05-13T21:37:30.989Z,97168.00
2019-05-13T21:40:06.106Z,97169.00
2019-05-13T21:42:41.660Z,97164.00
2019-05-13T21:45:12.957Z,97159.00
2019-05-13T21:47:45.457Z,97158.00
2019-05-13T21:50:31.107Z,97150.00
2019-05-13T21:52:51.636Z,97155.00
2019-05-13T21:55:23.805Z,97153.00
2019-05-13T21:57:56.640Z,97151.00
2019-05-13T22:00:33.616Z,97156.00
2019-05-13T22:03:05.631Z,97153.00
2019-05-13T22:05:37.907Z,97146.00
2019-05-13T22:08:12.147Z,97146.00
2019-05-13T22:10:44.771Z,97151.00
2019-05-13T22:13:17.117Z,97139.00
2019-05-13T22:15:49.412Z,97142.00
2019-05-13T22:18:22.526Z,97136.00
2019-05-13T22:20:55.091Z,97144.00
2019-05-13T22:23:27.650Z,97140.00
2019-05-13T22:26:01.687Z,97137.00
2019-05-13T22:28:33.872Z,97140.00
2019-05-13T22:31:06.310Z,97138.00
2019-05-13T22:33:41.279Z,97132.00
2019-05-13T22:36:13.555Z,97145.00
2019-05-13T22:38:45.468Z,97134.00
2019-05-13T22:41:17.898Z,97131.00
2019-05-13T22:43:55.749Z,97136.00
2019-05-13T22:46:24.320Z,97131.00
2019-05-13T22:48:56.993Z,97132.00
2019-05-13T22:51:31.838Z,97128.00
2019-05-13T22:54:03.107Z,97129.00
2019-05-13T22:56:35.238Z,97128.00
2019-05-13T22:59:07.924Z,97136.00
2019-05-13T23:01:41.839Z,97131.00
2019-05-13T23:04:14.552Z,97126.00
2019-05-13T23:06:47.163Z,97123.00
2019-05-13T23:09:21.556Z,97126.00
2019-05-13T23:11:53.991Z,97117.00
2019-05-13T23:14:26.498Z,97122.00
2019-05-13T23:16:58.345Z,97118.00
2019-05-13T23:19:32.295Z,97119.00
2019-05-13T23:22:04.618Z,97112.00
2019-05-13T23:24:36.943Z,97120.00
2019-05-13T23:27:11.057Z,97110.00
2019-05-13T23:29:42.724Z,97111.00
2019-05-13T23:32:15.821Z,97121.00
2019-05-13T23:34:48.334Z,97114.00
2019-05-13T23:37:21.834Z,97101.00
2019-05-13T23:39:54.813Z,97098.00
2019-05-13T23:42:26.673Z,97099.00
2019-05-13T23:44:59.333Z,97093.00
2019-05-13T23:47:31.514Z,97095.00
2019-05-13T23:50:03.713Z,97089.00
2019-05-13T23:52:36.242Z,97091.00
2019-05-13T23:55:08.345Z,97086.00
2019-05-13T23:57:42.138Z,97084.00
